Buffalo Range, Zimbabwe

7:07 AM CAT on December 04, 2016 (GMT +0200)
Buffalo Range | | Change Station

Elev 1411 ft 21.01 °S, 31.58 °E | Updated 1 hour ago

Clear
Clear
73 °F
Feels Like 73 °F
N
2
Wind Variable Wind from ESE

Today
High -- | Low -- °F
--% Chance of Precip.
Yesterday
High -- | Low -- °F
Precip. -- in
Pressure 30.09 in
Visibility -9999.0 miles
Clouds
Dew Point 68 °F
Humidity 83%
Rainfall 0.00 in
Snow Depth Not available.
5:03 AM 6:24 PM
Waxing Crescent, 19% visible
METAR FVCZ 040400Z 12002KT CAVOK 23/20 Q1019
Pressure 30.09 in
Visibility -9999.0 miles
Clouds
Dew Point 68 °F
Humidity 83%
Rainfall 0.00 in
Snow Depth Not available.
5:03 AM 6:24 PM
Waxing Crescent, 19% visible
METAR FVCZ 040400Z 12002KT CAVOK 23/20 Q1019

10-Day Weather Forecast

No radar image for this location.
×

Almanac

Astronomy

Dec. 04, 2016 Rise Set
Actual Time
Civil Twilight
Nautical Twilight
Astronomical Twilight
Moon
Length of Visible Light
Length of Day
Tomorrow will be .
, % of the Moon is Illuminated

Today's Extremes

Country Highs Country Lows

Community

WunderPhotos

Upload Photos

1,955,584 photos uploaded!

WunderBlog® & News

Nearby

Air Quality

  Air Quality AQ Index Pollutant
Not available.

Snow Depth

Station Depth Elevation

Earthquake Activity

City Distance Mag. Time & Date
Minimum magnitude displayed is 2.5.

Coastal Water Temperatures

Place Temperature

Stations

Nearby Weather Stations

Station Location Temp. Windchill Dew Point Humidity Wind Precip. Elev Updated Type